Terminal Aerodrome Forecast
Issued by NWS Melbourne, FL

Home | Current Version | Previous Version | Text Only | Print | Product List | Glossary On
Versions: 1 2 3 4 5 6 7 8 9 10 11 12 13 14
873
FTUS42 KMLB 192320
TAFMLB
TAF
KMLB 192320Z 2000/2024 10010KT P6SM VCSH SCT025 BKN050
     FM200600 11007KT P6SM SCT020 SCT035
     FM201500 12012KT P6SM FEW020 SCT035=

USA.gov is the U.S. government's official web portal to all federal, state and local government web resources and services.